Time;durP1;ratioP1;P1;durP2;ratioP2;P2;SDS_P1;SDS_P2;PMS_P1;PMS_P2;Temp;Humidity;BMP_temperature;BMP_pressure;BME280_temperature;BME280_humidity;BME280_pressure;Samples;Min_cycle;Max_cycle;Signal;HPM_P1;HPM_P2
2022/11/27 00:02:16;;;;;;;;;;;3.30;99.90;;;;;;6336288;28;19928;-85
2022/11/27 00:05:17;;;;;;;;;;;3.40;99.90;;;;;;6334068;28;20003;-82
2022/11/27 00:08:20;;;;;;;;;;;3.40;99.90;;;;;;6325983;28;19938;-83
2022/11/27 00:11:25;;;;;;;;;;;3.50;99.90;;;;;;6345760;28;19924;-83
2022/11/27 00:14:28;;;;;;;;;;;4.60;99.90;;;;;;6332059;28;19931;-84
2022/11/27 00:17:32;;;;;;;;;;;3.60;99.90;;;;;;6333520;28;19924;-83
2022/11/27 00:20:34;;;;;;;;;;;3.80;99.90;;;;;;6336117;28;19924;-83
2022/11/27 00:23:42;;;;;;;;;;;4.90;99.90;;;;;;6336057;28;19936;-83
2022/11/27 00:26:45;;;;;;;;;;;3.80;99.90;;;;;;6333592;28;19925;-84
2022/11/27 00:29:47;;;;;;;;;;;3.90;99.90;;;;;;6333992;28;20401;-84
2022/11/27 00:32:48;;;;;;;;;;;4.00;99.90;;;;;;6333859;28;19908;-84
2022/11/27 00:35:50;;;;;;;;;;;4.90;99.90;;;;;;6334241;28;20069;-84
2022/11/27 00:39:08;;;;;;;;;;;4.00;99.90;;;;;;6333047;28;19934;-84
2022/11/27 00:42:12;;;;;;;;;;;4.10;99.90;;;;;;6333904;28;19928;-84
2022/11/27 00:45:14;;;;;;;;;;;4.00;99.90;;;;;;6333371;28;20438;-82
2022/11/27 00:48:15;;;;;;;;;;;4.20;99.90;;;;;;6338652;28;19991;-82
2022/11/27 00:51:20;;;;;;;;;;;5.60;99.90;;;;;;6347588;28;20001;-83
2022/11/27 00:54:29;;;;;;;;;;;4.30;99.90;;;;;;6337564;28;20003;-84
2022/11/27 00:57:31;;;;;;;;;;;5.00;99.90;;;;;;6336537;28;19924;-83
2022/11/27 01:00:34;;;;;;;;;;;4.30;99.90;;;;;;6335771;28;19924;-83
2022/11/27 01:03:35;;;;;;;;;;;4.30;99.90;;;;;;6334604;28;19964;-84
2022/11/27 01:06:37;;;;;;;;;;;4.40;99.90;;;;;;6334285;28;20385;-83
2022/11/27 01:09:40;;;;;;;;;;;4.40;99.90;;;;;;6334312;28;19924;-83
2022/11/27 01:12:42;;;;;;;;;;;4.50;99.90;;;;;;6333727;28;19931;-83
2022/11/27 01:15:44;;;;;;;;;;;4.60;99.90;;;;;;6333249;28;19959;-82
2022/11/27 01:18:47;;;;;;;;;;;4.60;99.90;;;;;;6332522;28;20280;-83
2022/11/27 01:21:49;;;;;;;;;;;4.70;99.90;;;;;;6333934;28;20528;-83
2022/11/27 01:24:53;;;;;;;;;;;4.70;99.90;;;;;;6334413;28;20377;-83
2022/11/27 01:27:55;;;;;;;;;;;4.60;99.90;;;;;;6333150;28;19929;-83
2022/11/27 01:30:57;;;;;;;;;;;4.60;99.90;;;;;;6333880;28;20019;-83
2022/11/27 01:34:00;;;;;;;;;;;4.60;99.90;;;;;;6334122;28;19970;-83
2022/11/27 01:37:03;;;;;;;;;;;4.60;99.90;;;;;;6331951;28;19924;-83
2022/11/27 01:40:13;;;;;;;;;;;4.60;99.90;;;;;;6332121;28;20017;-83
2022/11/27 01:43:15;;;;;;;;;;;4.60;99.90;;;;;;6333763;28;19931;-83
2022/11/27 01:46:35;;;;;;;;;;;4.50;99.90;;;;;;6332937;28;20397;-83
2022/11/27 01:49:38;;;;;;;;;;;4.50;99.90;;;;;;6336721;28;19924;-82
2022/11/27 01:52:44;;;;;;;;;;;4.50;99.90;;;;;;6335232;28;19975;-83
2022/11/27 01:55:48;;;;;;;;;;;4.50;99.90;;;;;;6335095;28;20300;-83
2022/11/27 01:58:50;;;;;;;;;;;4.50;99.90;;;;;;6335305;28;20369;-83
2022/11/27 02:01:52;;;;;;;;;;;4.50;99.90;;;;;;6335868;28;20014;-83
2022/11/27 02:04:55;;;;;;;;;;;4.60;99.90;;;;;;6335826;28;19925;-83
2022/11/27 02:08:01;;;;;;;;;;;4.80;99.90;;;;;;6330240;28;19930;-82
2022/11/27 02:11:06;;;;;;;;;;;4.70;99.90;;;;;;6345437;28;20009;-83
2022/11/27 02:14:11;;;;;;;;;;;4.60;99.90;;;;;;6329799;28;19924;-83
2022/11/27 02:20:43;;;;;;;;;;;4.80;99.90;;;;;;6328630;28;19931;-83
2022/11/27 02:23:55;;;;;;;;;;;4.80;99.90;;;;;;6330560;28;19931;-83
2022/11/27 02:27:12;;;;;;;;;;;4.80;99.90;;;;;;6330224;28;19924;-83
2022/11/27 02:30:20;;;;;;;;;;;4.80;99.90;;;;;;6317483;28;19924;-82
2022/11/27 02:33:23;;;;;;;;;;;4.80;99.90;;;;;;6330039;28;19924;-83
2022/11/27 02:36:29;;;;;;;;;;;4.90;99.90;;;;;;6330302;28;19924;-83
2022/11/27 02:39:35;;;;;;;;;;;5.00;99.90;;;;;;6330212;28;19935;-83
2022/11/27 02:42:40;;;;;;;;;;;4.90;99.90;;;;;;6335352;28;19924;-82
2022/11/27 02:45:44;;;;;;;;;;;4.90;99.90;;;;;;6328017;28;20368;-83
2022/11/27 02:48:47;;;;;;;;;;;4.80;99.90;;;;;;6327882;28;20376;-83
2022/11/27 02:51:53;;;;;;;;;;;4.70;99.90;;;;;;6333634;28;19924;-82
2022/11/27 02:54:57;;;;;;;;;;;4.60;99.90;;;;;;6334040;28;19924;-83
2022/11/27 02:58:00;;;;;;;;;;;4.60;99.90;;;;;;6333207;28;19931;-82
2022/11/27 03:01:06;;;;;;;;;;;4.60;99.90;;;;;;6333483;28;20023;-83
2022/11/27 03:04:09;;;;;;;;;;;4.70;99.90;;;;;;6333383;28;19924;-83
2022/11/27 03:07:15;;;;;;;;;;;4.70;99.90;;;;;;6333840;28;20005;-82
2022/11/27 03:10:18;;;;;;;;;;;6.00;99.90;;;;;;6333943;28;19931;-83
2022/11/27 03:13:23;;;;;;;;;;;4.70;99.90;;;;;;6332552;28;20308;-82
2022/11/27 03:16:30;;;;;;;;;;;5.30;99.90;;;;;;6333057;28;19924;-83
2022/11/27 03:19:39;;;;;;;;;;;4.90;99.90;;;;;;6333822;28;19936;-83
2022/11/27 03:22:43;;;;;;;;;;;5.00;99.90;;;;;;6331881;28;19928;-83
2022/11/27 03:25:45;;;;;;;;;;;5.10;99.90;;;;;;6331699;28;19977;-82
2022/11/27 03:28:47;;;;;;;;;;;4.90;99.90;;;;;;6332533;28;20010;-82
2022/11/27 03:31:50;;;;;;;;;;;5.00;99.90;;;;;;6332695;28;19924;-82
2022/11/27 03:34:52;;;;;;;;;;;5.10;99.90;;;;;;6334514;28;19947;-83
2022/11/27 03:37:57;;;;;;;;;;;5.20;99.90;;;;;;6336179;28;19931;-83
2022/11/27 03:41:03;;;;;;;;;;;5.30;99.90;;;;;;6337718;28;20007;-83
2022/11/27 03:44:09;;;;;;;;;;;5.40;99.90;;;;;;6335015;28;19924;-83
2022/11/27 03:47:17;;;;;;;;;;;5.30;99.90;;;;;;6336213;28;20301;-82
2022/11/27 03:50:21;;;;;;;;;;;5.30;99.90;;;;;;6334301;28;20308;-83
2022/11/27 03:53:25;;;;;;;;;;;5.30;99.90;;;;;;6334684;28;20284;-83
2022/11/27 03:56:35;;;;;;;;;;;5.30;99.90;;;;;;6335305;28;19924;-83
2022/11/27 03:59:38;;;;;;;;;;;5.40;99.90;;;;;;6336919;28;19931;-83
2022/11/27 04:02:42;;;;;;;;;;;5.30;99.90;;;;;;6335175;28;19924;-83
2022/11/27 04:05:45;;;;;;;;;;;5.40;99.90;;;;;;6334795;28;20319;-82
2022/11/27 04:08:47;;;;;;;;;;;5.50;99.90;;;;;;6333778;28;19956;-83
2022/11/27 04:11:49;;;;;;;;;;;5.40;99.90;;;;;;6331994;28;19930;-83
2022/11/27 04:14:51;;;;;;;;;;;5.40;99.90;;;;;;6332145;28;19931;-83
2022/11/27 04:17:53;;;;;;;;;;;5.50;99.90;;;;;;6343905;28;19962;-83
2022/11/27 04:20:55;;;;;;;;;;;5.60;99.90;;;;;;6338847;28;19931;-84
2022/11/27 04:23:57;;;;;;;;;;;5.70;99.90;;;;;;6333498;28;19924;-83
2022/11/27 04:26:58;;;;;;;;;;;5.80;99.90;;;;;;6333222;28;19930;-83
2022/11/27 04:30:00;;;;;;;;;;;5.80;99.90;;;;;;6331224;28;20018;-83
2022/11/27 04:33:03;;;;;;;;;;;5.80;99.90;;;;;;6331907;28;19934;-83
2022/11/27 04:36:05;;;;;;;;;;;5.80;99.90;;;;;;6331295;28;19931;-83
2022/11/27 04:39:06;;;;;;;;;;;5.80;99.90;;;;;;6331894;28;20015;-83
2022/11/27 04:42:08;;;;;;;;;;;5.90;99.90;;;;;;6331281;28;19931;-83
2022/11/27 04:45:10;;;;;;;;;;;5.90;99.90;;;;;;6331603;28;19924;-83
2022/11/27 04:48:13;;;;;;;;;;;5.90;99.90;;;;;;6331085;28;20378;-83
2022/11/27 04:51:14;;;;;;;;;;;5.90;99.90;;;;;;6331302;28;20336;-83
2022/11/27 04:54:16;;;;;;;;;;;5.90;99.90;;;;;;6331194;28;19950;-83
2022/11/27 04:57:18;;;;;;;;;;;5.90;99.90;;;;;;6331723;28;19928;-83
2022/11/27 05:00:20;;;;;;;;;;;5.90;99.90;;;;;;6331227;28;19924;-83
2022/11/27 05:03:23;;;;;;;;;;;6.00;99.90;;;;;;6331820;28;19928;-84
2022/11/27 05:06:25;;;;;;;;;;;5.90;99.90;;;;;;6340150;28;19954;-83
2022/11/27 05:09:27;;;;;;;;;;;5.80;99.90;;;;;;6332635;28;19928;-83
2022/11/27 05:12:28;;;;;;;;;;;5.80;99.90;;;;;;6329074;28;19924;-83
2022/11/27 05:15:30;;;;;;;;;;;5.90;99.90;;;;;;6329068;28;19930;-83
2022/11/27 05:18:33;;;;;;;;;;;6.00;99.90;;;;;;6328773;28;19950;-83
2022/11/27 05:21:34;;;;;;;;;;;6.00;99.90;;;;;;6328252;28;20282;-83
2022/11/27 05:24:36;;;;;;;;;;;5.90;99.90;;;;;;6327446;28;20554;-83
2022/11/27 05:27:37;;;;;;;;;;;6.00;99.90;;;;;;6328847;28;19923;-83
2022/11/27 05:30:39;;;;;;;;;;;6.00;99.90;;;;;;6328198;28;19924;-83
2022/11/27 05:33:42;;;;;;;;;;;6.00;99.90;;;;;;6328307;28;20065;-83
2022/11/27 05:36:43;;;;;;;;;;;6.00;99.90;;;;;;6328609;28;19924;-83
2022/11/27 05:39:45;;;;;;;;;;;6.00;99.90;;;;;;6329195;28;19924;-83
2022/11/27 05:42:47;;;;;;;;;;;6.00;99.90;;;;;;6328258;28;19924;-83
2022/11/27 05:45:48;;;;;;;;;;;6.00;99.90;;;;;;6328889;28;19924;-83
2022/11/27 05:48:51;;;;;;;;;;;6.00;99.90;;;;;;6327891;28;19924;-83
2022/11/27 05:51:53;;;;;;;;;;;6.00;99.90;;;;;;6328167;28;19924;-83
2022/11/27 05:54:55;;;;;;;;;;;6.00;99.90;;;;;;6327562;28;20282;-84
2022/11/27 05:58:00;;;;;;;;;;;6.00;99.90;;;;;;6327678;28;19924;-84
2022/11/27 06:01:02;;;;;;;;;;;6.00;99.90;;;;;;6327659;28;19928;-84
2022/11/27 06:04:05;;;;;;;;;;;6.10;99.90;;;;;;6327684;28;19984;-84
2022/11/27 06:07:06;;;;;;;;;;;6.00;99.90;;;;;;6328302;28;20552;-84
2022/11/27 06:10:08;;;;;;;;;;;6.00;99.90;;;;;;6328368;28;20411;-83
2022/11/27 06:13:10;;;;;;;;;;;6.00;99.90;;;;;;6327786;28;19924;-84
2022/11/27 06:16:12;;;;;;;;;;;6.00;99.90;;;;;;6330581;28;19924;-84
2022/11/27 06:19:15;;;;;;;;;;;5.90;99.90;;;;;;6329065;28;19935;-84
2022/11/27 06:22:17;;;;;;;;;;;5.80;99.90;;;;;;6329266;28;19924;-83
2022/11/27 06:25:18;;;;;;;;;;;5.80;99.90;;;;;;6331455;28;19924;-84
2022/11/27 06:28:20;;;;;;;;;;;5.80;99.90;;;;;;6333185;28;19930;-83
2022/11/27 06:31:24;;;;;;;;;;;5.70;99.90;;;;;;6334765;28;19924;-83
2022/11/27 06:34:26;;;;;;;;;;;5.70;99.90;;;;;;6335187;27;20396;-83
2022/11/27 06:37:28;;;;;;;;;;;5.60;99.90;;;;;;6334013;28;20323;-83
2022/11/27 06:40:30;;;;;;;;;;;5.50;99.90;;;;;;6334350;28;20632;-83
2022/11/27 06:43:31;;;;;;;;;;;5.60;99.90;;;;;;6334927;28;20321;-83
2022/11/27 06:46:33;;;;;;;;;;;5.70;99.90;;;;;;6334175;28;19924;-83
2022/11/27 06:49:36;;;;;;;;;;;5.80;99.90;;;;;;6334469;28;19924;-83
2022/11/27 06:52:37;;;;;;;;;;;5.90;99.90;;;;;;6334649;28;19930;-83
2022/11/27 06:55:39;;;;;;;;;;;5.90;99.90;;;;;;6336058;28;19924;-84
2022/11/27 06:58:41;;;;;;;;;;;5.90;99.90;;;;;;6334323;28;19931;-83
2022/11/27 07:01:43;;;;;;;;;;;5.80;99.90;;;;;;6334521;28;19932;-83
2022/11/27 07:04:45;;;;;;;;;;;5.90;99.90;;;;;;6333583;28;19924;-84
2022/11/27 07:07:47;;;;;;;;;;;6.00;99.90;;;;;;6333198;28;19924;-83
2022/11/27 07:10:49;;;;;;;;;;;6.00;99.90;;;;;;6332588;28;19924;-83
2022/11/27 07:13:51;;;;;;;;;;;5.90;99.90;;;;;;6333112;28;19938;-83
2022/11/27 07:16:52;;;;;;;;;;;5.80;99.90;;;;;;6332725;28;19928;-84
2022/11/27 07:19:55;;;;;;;;;;;5.70;99.90;;;;;;6332744;28;19934;-84
2022/11/27 07:22:57;;;;;;;;;;;5.60;99.90;;;;;;6332425;28;19953;-84
2022/11/27 07:25:58;;;;;;;;;;;5.60;99.90;;;;;;6332703;28;19924;-83
2022/11/27 07:29:00;;;;;;;;;;;5.70;99.90;;;;;;6332208;28;20324;-83
2022/11/27 07:32:01;;;;;;;;;;;5.70;99.90;;;;;;6334362;28;20270;-83
2022/11/27 07:35:05;;;;;;;;;;;5.70;99.90;;;;;;6332910;28;20293;-83
2022/11/27 07:38:06;;;;;;;;;;;5.60;99.90;;;;;;6333270;28;19924;-83
2022/11/27 07:41:08;;;;;;;;;;;5.60;99.90;;;;;;6332514;28;19938;-83
2022/11/27 07:44:10;;;;;;;;;;;6.80;99.90;;;;;;6333352;28;19924;-83
2022/11/27 07:47:12;;;;;;;;;;;5.70;99.90;;;;;;6333170;28;19924;-83
2022/11/27 07:50:14;;;;;;;;;;;5.90;99.90;;;;;;6333563;28;19912;-83
2022/11/27 07:53:16;;;;;;;;;;;6.00;99.90;;;;;;6334460;28;19930;-83
2022/11/27 07:56:18;;;;;;;;;;;6.10;99.90;;;;;;6334010;28;19930;-84
2022/11/27 07:59:20;;;;;;;;;;;6.10;99.90;;;;;;6334362;28;19961;-83
2022/11/27 08:02:21;;;;;;;;;;;6.10;99.90;;;;;;6334751;28;19931;-83
2022/11/27 08:05:24;;;;;;;;;;;6.10;99.90;;;;;;6332072;28;20022;-83
2022/11/27 08:08:26;;;;;;;;;;;6.10;99.90;;;;;;6331561;28;19988;-83
2022/11/27 08:11:28;;;;;;;;;;;6.00;99.90;;;;;;6331350;28;19924;-83
2022/11/27 08:14:30;;;;;;;;;;;6.00;99.90;;;;;;6332732;28;20438;-84
2022/11/27 08:17:32;;;;;;;;;;;6.00;99.90;;;;;;6332056;28;19930;-83
2022/11/27 08:20:35;;;;;;;;;;;6.00;99.90;;;;;;6332366;28;20293;-83
2022/11/27 08:23:36;;;;;;;;;;;6.00;99.90;;;;;;6332096;28;19951;-84
2022/11/27 08:26:38;;;;;;;;;;;5.90;99.90;;;;;;6331996;28;19924;-83
2022/11/27 08:29:39;;;;;;;;;;;6.00;99.90;;;;;;6331850;28;19928;-84
2022/11/27 08:32:42;;;;;;;;;;;6.10;99.90;;;;;;6331177;28;19930;-84
2022/11/27 08:35:48;;;;;;;;;;;6.30;99.90;;;;;;6331467;28;20380;-84
2022/11/27 08:38:50;;;;;;;;;;;6.50;99.90;;;;;;6331264;28;19924;-84
2022/11/27 08:41:52;;;;;;;;;;;6.70;99.90;;;;;;6331098;28;19930;-84
2022/11/27 08:44:53;;;;;;;;;;;7.10;99.90;;;;;;6335902;28;19938;-84
2022/11/27 08:47:55;;;;;;;;;;;6.90;99.90;;;;;;6332552;28;19924;-84
2022/11/27 08:50:58;;;;;;;;;;;6.90;99.90;;;;;;6334007;28;19930;-84
2022/11/27 08:53:59;;;;;;;;;;;7.00;99.90;;;;;;6333095;28;20312;-84
2022/11/27 08:57:01;;;;;;;;;;;7.10;99.90;;;;;;6332944;28;20308;-83
2022/11/27 09:00:37;;;;;;;;;;;7.20;99.90;;;;;;6324603;28;19928;-84
2022/11/27 09:03:41;;;;;;;;;;;7.30;99.90;;;;;;6339012;28;19928;-84
2022/11/27 09:06:46;;;;;;;;;;;7.40;99.90;;;;;;6337403;27;19950;-83
2022/11/27 09:09:48;;;;;;;;;;;7.40;99.90;;;;;;6298715;28;19925;-83
2022/11/27 09:12:50;;;;;;;;;;;7.40;99.90;;;;;;6321357;28;19931;-83
2022/11/27 09:15:57;;;;;;;;;;;7.50;99.90;;;;;;6330039;28;19927;-83
2022/11/27 09:19:04;;;;;;;;;;;7.60;99.90;;;;;;6333421;28;20475;-82
2022/11/27 09:22:12;;;;;;;;;;;7.50;99.90;;;;;;6333301;28;19984;-83
2022/11/27 09:25:15;;;;;;;;;;;7.50;99.90;;;;;;6322022;28;19930;-83
2022/11/27 09:28:21;;;;;;;;;;;7.60;99.90;;;;;;6323845;27;20472;-85
2022/11/27 09:31:25;;;;;;;;;;;7.60;99.90;;;;;;6331408;28;19928;-83
2022/11/27 09:34:26;;;;;;;;;;;7.60;99.90;;;;;;6330151;28;19924;-83
2022/11/27 09:40:49;;;;;;;;;;;7.90;99.90;;;;;;6323878;28;19925;-83
2022/11/27 09:43:52;;;;;;;;;;;8.80;99.90;;;;;;6330012;28;20364;-83
2022/11/27 09:46:55;;;;;;;;;;;8.10;99.90;;;;;;6331926;28;20015;-82
2022/11/27 09:49:58;;;;;;;;;;;7.70;99.90;;;;;;6330378;28;19924;-83
2022/11/27 09:53:08;;;;;;;;;;;7.80;99.90;;;;;;6321162;28;19988;-83
2022/11/27 09:56:11;;;;;;;;;;;8.70;99.90;;;;;;6330242;28;19932;-83
2022/11/27 09:59:14;;;;;;;;;;;8.00;99.90;;;;;;6330111;28;20382;-83
2022/11/27 10:02:17;;;;;;;;;;;8.10;99.90;;;;;;6329540;28;20015;-83
2022/11/27 10:05:20;;;;;;;;;;;8.20;99.90;;;;;;6329441;28;20416;-83
2022/11/27 10:08:47;;;;;;;;;;;8.20;99.90;;;;;;6340289;22;20007;-83
2022/11/27 10:11:54;;;;;;;;;;;8.20;99.90;;;;;;6289212;28;19935;-82
2022/11/27 10:15:04;;;;;;;;;;;8.30;99.90;;;;;;6299945;28;19947;-83
2022/11/27 10:18:21;;;;;;;;;;;8.20;99.90;;;;;;6297538;28;19932;-83
2022/11/27 10:21:37;;;;;;;;;;;8.20;99.90;;;;;;6301177;28;19924;-84
2022/11/27 10:24:59;;;;;;;;;;;8.20;99.90;;;;;;6288440;28;19928;-84
2022/11/27 10:35:33;;;;;;;;;;;8.10;99.90;;;;;;6149690;29;20380;-83
2022/11/27 12:07:57;;;;;;;;;;;8.90;99.90;;;;;;5971621;29;20383;-85
2022/11/27 12:55:18;;;;;;;;;;;8.50;99.90;;;;;;5990076;29;19935;-82
2022/11/27 12:58:28;;;;;;;;;;;10.50;99.90;;;;;;6159600;28;19971;-83
2022/11/27 13:01:39;;;;;;;;;;;9.30;99.90;;;;;;6248482;28;19931;-83
2022/11/27 13:12:09;;;;;;;;;;;9.20;99.90;;;;;;6240749;28;20289;-85
2022/11/27 13:30:12;;;;;;;;;;;9.40;99.90;;;;;;6125687;29;20001;-86
2022/11/27 13:33:29;;;;;;;45.45;15.60;;;8.80;99.90;;;;;;6204590;28;21063;-79
2022/11/27 13:36:36;;;;;;;33.53;11.23;;;7.30;99.90;;;;;;6282789;28;20143;-83
2022/11/27 13:43:27;;;;;;;354.27;154.43;;;9.60;99.90;;;;;;6303463;27;20391;-82
2022/11/27 13:55:08;;;;;;;365.08;119.75;;;10.80;99.90;;;;;;6270087;28;20033;-83
2022/11/27 13:58:10;;;;;;;46.50;15.43;;;;;;;;;;6255305;28;20428;-79
2022/11/27 14:13:02;;;;;;;42.03;12.35;;;9.30;99.90;;;;;;6116646;28;20051;-83
2022/11/27 14:16:23;;;;;;;51.47;14.18;;;11.20;99.90;;;;;;6192470;28;20062;-84
2022/11/27 14:19:29;;;;;;;54.75;14.43;;;9.40;99.90;;;;;;6214744;28;20126;-84
2022/11/27 14:22:40;;;;;;;63.42;16.17;;;9.90;99.90;;;;;;6214769;28;20053;-84
2022/11/27 14:25:42;;;;;;;41.63;11.70;;;9.20;99.90;;;;;;6212524;28;20049;-84
2022/11/27 14:28:49;;;;;;;49.22;14.23;;;9.10;99.90;;;;;;6212120;28;20054;-84
2022/11/27 14:38:57;;;;;;;46.78;13.80;;;8.80;99.90;;;;;;6177706;28;20050;-84
2022/11/27 14:42:00;;;;;;;48.60;13.68;;;8.60;99.90;;;;;;6239469;28;20045;-83
2022/11/27 14:45:05;;;;;;;55.83;14.35;;;8.60;99.90;;;;;;6216647;28;20135;-83
2022/11/27 14:48:40;;;;;;;53.38;15.25;;;8.80;99.90;;;;;;6210926;28;20053;-85
2022/11/27 14:51:43;;;;;;;51.88;14.48;;;8.70;99.90;;;;;;6223477;28;20050;-84
2022/11/27 14:54:45;;;;;;;39.35;11.63;;;8.40;99.90;;;;;;6201239;28;20057;-83
2022/11/27 14:57:49;;;;;;;69.30;19.67;;;8.40;99.90;;;;;;6200076;28;20050;-83
2022/11/27 15:00:56;;;;;;;62.25;15.57;;;8.50;99.90;;;;;;6199823;28;20070;-84
2022/11/27 15:03:58;;;;;;;54.77;14.23;;;8.50;99.90;;;;;;6203342;28;20061;-84
2022/11/27 15:07:01;;;;;;;53.42;15.38;;;8.40;99.90;;;;;;6249882;28;20303;-84
2022/11/27 15:10:15;;;;;;;94.20;28.58;;;8.50;99.90;;;;;;6252305;28;20068;-84
2022/11/27 15:13:22;;;;;;;50.80;15.32;;;8.40;99.90;;;;;;6220696;28;20054;-84
2022/11/27 15:16:32;;;;;;;55.53;16.65;;;8.50;99.90;;;;;;6201823;28;20050;-86
2022/11/27 15:19:37;;;;;;;100.00;32.45;;;8.50;99.90;;;;;;6201402;28;20050;-84
2022/11/27 15:22:38;;;;;;;54.38;17.77;;;8.50;99.90;;;;;;6202415;28;20060;-83
2022/11/27 15:25:42;;;;;;;49.78;14.23;;;8.00;99.90;;;;;;6201854;28;20129;-84
2022/11/27 15:28:52;;;;;;;52.38;15.48;;;8.50;99.90;;;;;;6201302;28;20092;-83
2022/11/27 15:31:55;;;;;;;43.63;12.07;;;8.60;99.90;;;;;;6201512;28;20052;-82
2022/11/27 15:34:57;;;;;;;60.60;17.20;;;8.50;99.90;;;;;;6200415;28;20137;-83
2022/11/27 15:38:03;;;;;;;80.35;24.17;;;9.00;99.90;;;;;;6198076;28;20118;-83
2022/11/27 15:41:05;;;;;;;71.82;19.67;;;9.20;99.90;;;;;;6225077;28;20403;-83
2022/11/27 15:44:08;;;;;;;59.75;17.52;;;9.30;99.90;;;;;;6241418;28;20098;-83
2022/11/27 15:47:27;;;;;;;59.00;18.75;;;9.60;99.90;;;;;;6249473;28;20071;-84
2022/11/27 15:50:29;;;;;;;53.63;15.90;;;9.50;99.90;;;;;;6248631;28;20048;-84
2022/11/27 15:53:31;;;;;;;66.82;18.52;;;9.30;99.90;;;;;;6248584;28;20534;-83
2022/11/27 15:56:33;;;;;;;55.35;15.57;;;9.30;99.90;;;;;;6248444;28;20041;-84
2022/11/27 15:59:34;;;;;;;53.92;16.00;;;9.10;99.90;;;;;;6248886;28;20090;-84
2022/11/27 16:02:38;;;;;;;72.35;19.98;;;9.20;99.90;;;;;;6249836;28;20041;-85
2022/11/27 16:05:40;;;;;;;42.22;12.98;;;6.70;99.90;;;;;;6248311;28;20047;-84
2022/11/27 16:08:42;;;;;;;46.20;13.90;;;10.50;99.90;;;;;;6258057;23;20494;-82
2022/11/27 16:11:44;;;;;;;44.05;14.18;;;9.00;99.90;;;;;;6228453;28;20042;-83
2022/11/27 16:14:46;;;;;;;52.70;15.88;;;8.90;99.90;;;;;;6227594;28;20072;-82
2022/11/27 16:17:49;;;;;;;56.50;17.88;;;8.80;99.90;;;;;;6227281;28;20541;-82
2022/11/27 16:20:51;;;;;;;50.92;16.05;;;8.80;99.90;;;;;;6227046;28;20461;-82
2022/11/27 16:23:57;;;;;;;61.88;17.95;;;8.50;99.90;;;;;;6227219;28;20594;-81
2022/11/27 16:26:59;;;;;;;62.15;19.30;;;8.60;99.90;;;;;;6228288;28;20076;-81
2022/11/27 16:30:04;;;;;;;49.55;16.00;;;8.60;99.90;;;;;;6225528;28;20113;-81
2022/11/27 16:33:08;;;;;;;45.80;13.82;;;8.40;99.90;;;;;;6227605;28;20519;-81
2022/11/27 16:36:24;;;;;;;99.85;29.77;;;8.40;99.90;;;;;;6215731;28;20050;-82
2022/11/27 16:39:26;;;;;;;62.40;18.50;;;8.30;99.90;;;;;;6226001;28;20058;-81
2022/11/27 16:42:28;;;;;;;56.15;16.60;;;8.00;99.90;;;;;;6225796;28;20092;-80
2022/11/27 16:45:30;;;;;;;57.38;15.77;;;8.10;99.90;;;;;;6225623;28;20129;-81
2022/11/27 16:48:38;;;;;;;63.95;19.83;;;7.70;99.90;;;;;;6224387;28;20511;-82
2022/11/27 16:51:40;;;;;;;61.00;16.52;;;7.40;99.90;;;;;;6226926;28;20092;-80
2022/11/27 16:54:41;;;;;;;55.45;15.60;;;8.00;99.90;;;;;;6225626;28;20099;-80
2022/11/27 16:57:43;;;;;;;60.92;17.38;;;7.70;99.90;;;;;;6225220;28;20426;-80
2022/11/27 17:00:45;;;;;;;57.10;15.15;;;8.00;99.90;;;;;;6225193;28;20046;-82
2022/11/27 17:04:03;;;;;;;53.90;14.50;;;7.90;99.90;;;;;;6226229;28;20096;-81
2022/11/27 17:07:21;;;;;;;63.22;18.48;;;7.70;99.90;;;;;;6226484;28;20053;-81
2022/11/27 17:10:23;;;;;;;43.45;12.00;;;7.80;99.90;;;;;;6225996;28;20046;-80
2022/11/27 17:13:25;;;;;;;67.38;17.08;;;7.60;99.90;;;;;;6225098;28;20459;-82
2022/11/27 17:16:27;;;;;;;64.75;16.50;;;8.00;99.90;;;;;;6221053;28;20124;-82
2022/11/27 17:19:36;;;;;;;53.05;13.57;;;7.80;99.90;;;;;;6201043;28;20062;-82
2022/11/27 17:22:41;;;;;;;46.78;13.18;;;7.90;99.90;;;;;;6200563;28;20073;-82
2022/11/27 17:30:01;;;;;;;56.55;18.00;;;7.70;99.90;;;;;;6190586;28;20045;-83
2022/11/27 17:33:16;;;;;;;80.60;23.52;;;7.80;99.90;;;;;;6223611;28;20072;-82
2022/11/27 17:47:48;;;;;;;137.15;40.00;;;7.90;99.90;;;;;;6101110;29;20050;-83
2022/11/27 17:50:50;;;;;;;95.57;26.58;;;8.00;99.90;;;;;;6129996;29;20148;-83
2022/11/27 17:57:47;;;;;;;77.78;22.95;;;8.10;99.90;;;;;;6109922;28;20080;-83
2022/11/27 18:00:49;;;;;;;73.97;22.17;;;8.40;99.90;;;;;;6227706;28;20111;-83
2022/11/27 18:03:54;;;;;;;101.95;39.55;;;8.30;99.90;;;;;;6226852;28;20077;-82
2022/11/27 18:06:56;;;;;;;82.72;26.08;;;8.30;99.90;;;;;;6229100;28;20118;-84
2022/11/27 18:10:01;;;;;;;69.63;20.10;;;10.00;99.90;;;;;;6231218;28;20163;-83
2022/11/27 18:13:04;;;;;;;63.65;19.50;;;9.70;99.90;;;;;;6221957;28;20054;-82
2022/11/27 18:16:08;;;;;;;76.80;21.27;;;8.00;99.90;;;;;;6226337;28;20136;-83
2022/11/27 18:19:11;;;;;;;65.30;19.02;;;8.20;99.90;;;;;;6228830;28;20050;-82
2022/11/27 18:22:13;;;;;;;54.15;15.85;;;8.20;99.90;;;;;;6229309;28;20050;-83
2022/11/27 18:25:18;;;;;;;58.60;17.55;;;9.80;99.90;;;;;;6228408;28;20049;-83
2022/11/27 18:28:33;;;;;;;66.80;19.05;;;7.50;99.90;;;;;;6230263;28;20076;-83
2022/11/27 18:31:35;;;;;;;53.70;17.25;;;8.30;99.90;;;;;;6233094;28;20045;-83
2022/11/27 18:34:46;;;;;;;56.38;15.20;;;8.20;99.90;;;;;;6231279;28;20049;-83
2022/11/27 18:45:42;;;;;;;56.97;16.50;;;8.30;99.90;;;;;;6207899;28;20046;-81
2022/11/27 18:48:44;;;;;;;;;;;8.50;99.90;;;;;;6204905;28;20034;-81
2022/11/27 18:51:46;;;;;;;102.85;30.58;;;9.00;99.90;;;;;;6207223;28;19969;-81
2022/11/27 18:54:51;;;;;;;99.13;33.92;;;9.70;99.90;;;;;;6198877;28;20102;-81
2022/11/27 18:57:58;;;;;;;114.35;37.53;;;9.40;99.90;;;;;;6205012;28;20046;-81
2022/11/27 19:01:02;;;;;;;110.60;37.95;;;9.50;99.90;;;;;;6206127;28;20057;-81
2022/11/27 19:04:05;;;;;;;115.45;33.80;;;9.50;99.90;;;;;;6206035;28;20578;-81
2022/11/27 19:07:07;;;;;;;65.00;20.25;;;9.80;99.90;;;;;;6207146;28;20058;-81
2022/11/27 19:10:17;;;;;;;76.53;25.30;;;9.80;99.90;;;;;;6219932;28;20052;-81
2022/11/27 19:13:19;;;;;;;61.45;19.45;;;9.90;99.90;;;;;;6228071;28;20132;-81
2022/11/27 19:16:58;;;;;;;116.85;35.65;;;10.20;99.90;;;;;;6211795;28;20085;-81
2022/11/27 19:20:06;;;;;;;73.70;22.80;;;10.10;99.90;;;;;;6192639;28;20057;-81
2022/11/27 19:23:10;;;;;;;;;;;10.20;99.90;;;;;;6205336;28;20050;-82
2022/11/27 19:33:24;;;;;;;82.57;25.70;;;9.40;99.90;;;;;;810113;26;20326;-83
2022/11/27 19:36:30;;;;;;;68.25;21.40;;;9.10;99.90;;;;;;6163574;28;20047;-83
2022/11/27 19:40:06;;;;;;;126.50;37.95;;;8.90;99.90;;;;;;6180915;28;20566;-83
2022/11/27 19:43:12;;;;;;;59.50;20.48;;;9.80;99.90;;;;;;6179801;28;20054;-82
2022/11/27 19:46:19;;;;;;;63.15;19.80;;;8.70;99.90;;;;;;6181672;28;20055;-82
2022/11/27 20:03:29;;;;;;;62.47;21.65;;;8.60;99.90;;;;;;6131775;29;20059;-83
2022/11/27 20:06:35;;;;;;;60.00;18.20;;;8.50;99.90;;;;;;6127367;29;20055;-84
2022/11/27 20:09:46;;;;;;;53.80;17.50;;;8.60;99.90;;;;;;6144749;28;20049;-83
2022/11/27 20:12:48;;;;;;;63.03;19.55;;;8.60;99.90;;;;;;6225952;28;20046;-84
2022/11/27 20:15:51;;;;;;;73.30;23.75;;;8.40;99.90;;;;;;6228673;28;20054;-82
2022/11/27 20:18:53;;;;;;;62.53;19.25;;;8.50;99.90;;;;;;6227273;28;20123;-83
2022/11/27 20:21:55;;;;;;;62.30;19.33;;;10.00;99.90;;;;;;6226947;28;20068;-81
2022/11/27 20:24:58;;;;;;;59.90;18.33;;;8.30;99.90;;;;;;6226898;28;20507;-82
2022/11/27 20:28:02;;;;;;;115.65;35.78;;;8.30;99.90;;;;;;6218688;28;20060;-83
2022/11/27 20:31:04;;;;;;;89.53;25.77;;;8.10;99.90;;;;;;6227537;28;20140;-82
2022/11/27 20:34:07;;;;;;;83.88;25.23;;;8.20;99.90;;;;;;6227718;28;20056;-83
2022/11/27 20:37:12;;;;;;;48.78;15.75;;;8.30;99.90;;;;;;6228450;28;20100;-83
2022/11/27 20:40:19;;;;;;;110.60;33.55;;;8.10;99.90;;;;;;6218004;28;20055;-84
2022/11/27 20:43:21;;;;;;;68.93;20.02;;;8.30;99.90;;;;;;6222040;28;20068;-83
2022/11/27 20:46:28;;;;;;;70.72;19.77;;;8.10;99.90;;;;;;6226167;28;20076;-81
2022/11/27 20:49:32;;;;;;;63.97;19.10;;;8.20;99.90;;;;;;6217822;28;20511;-83
2022/11/27 20:56:40;;;;;;;62.63;19.17;;;8.20;99.90;;;;;;6223880;28;20069;-83
2022/11/27 20:59:41;;;;;;;60.20;17.70;;;7.70;99.90;;;;;;6228528;28;20396;-83
2022/11/27 21:02:43;;;;;;;54.67;16.45;;;7.90;99.90;;;;;;6230245;28;20555;-83
2022/11/27 21:05:46;;;;;;;65.80;17.77;;;8.00;99.90;;;;;;6228846;28;20405;-83
2022/11/27 21:08:49;;;;;;;59.67;16.42;;;8.30;99.90;;;;;;6228838;28;20053;-82
2022/11/27 21:11:53;;;;;;;76.32;20.42;;;7.90;99.90;;;;;;6229371;28;20038;-84
2022/11/27 21:14:57;;;;;;;65.35;20.20;;;8.00;99.90;;;;;;6227468;28;20049;-82
2022/11/27 21:18:03;;;;;;;59.63;17.80;;;7.90;99.90;;;;;;6226348;28;20038;-82
2022/11/27 21:21:07;;;;;;;61.88;17.52;;;7.90;99.90;;;;;;6227507;28;20046;-83
2022/11/27 21:24:09;;;;;;;78.38;20.60;;;7.80;99.90;;;;;;6226456;28;20073;-83
2022/11/27 21:27:15;;;;;;;54.42;16.02;;;7.70;99.90;;;;;;6226692;28;20081;-82